sensor_id;sensor_type;location;lat;lon;timestamp;P1;durP1;ratioP1;P2;durP2;ratioP2
68449;SDS011;67758;39.572;2.652;2023-04-29T00:01:22;9.07;;;2.00;;
68449;SDS011;67758;39.572;2.652;2023-04-29T00:03:48;7.22;;;1.88;;
68449;SDS011;67758;39.572;2.652;2023-04-29T00:06:14;6.97;;;2.38;;
68449;SDS011;67758;39.572;2.652;2023-04-29T00:08:40;8.70;;;1.57;;
68449;SDS011;67758;39.572;2.652;2023-04-29T00:11:08;7.40;;;1.50;;
68449;SDS011;67758;39.572;2.652;2023-04-29T00:13:35;6.47;;;1.52;;
68449;SDS011;67758;39.572;2.652;2023-04-29T00:16:00;4.80;;;1.20;;
68449;SDS011;67758;39.572;2.652;2023-04-29T00:18:26;5.40;;;1.30;;
68449;SDS011;67758;39.572;2.652;2023-04-29T00:20:51;5.90;;;1.00;;
68449;SDS011;67758;39.572;2.652;2023-04-29T00:23:20;6.85;;;1.30;;
68449;SDS011;67758;39.572;2.652;2023-04-29T00:25:47;6.13;;;1.30;;
68449;SDS011;67758;39.572;2.652;2023-04-29T00:28:16;9.05;;;1.40;;
68449;SDS011;67758;39.572;2.652;2023-04-29T00:30:42;7.93;;;1.30;;
68449;SDS011;67758;39.572;2.652;2023-04-29T00:33:07;7.17;;;1.30;;
68449;SDS011;67758;39.572;2.652;2023-04-29T00:35:36;8.65;;;1.30;;
68449;SDS011;67758;39.572;2.652;2023-04-29T00:38:19;7.25;;;1.20;;
68449;SDS011;67758;39.572;2.652;2023-04-29T00:40:48;5.72;;;1.30;;
68449;SDS011;67758;39.572;2.652;2023-04-29T00:43:18;4.97;;;1.23;;
68449;SDS011;67758;39.572;2.652;2023-04-29T00:45:44;6.55;;;1.50;;
68449;SDS011;67758;39.572;2.652;2023-04-29T00:48:12;8.02;;;1.10;;
68449;SDS011;67758;39.572;2.652;2023-04-29T00:50:44;6.60;;;1.30;;
68449;SDS011;67758;39.572;2.652;2023-04-29T00:53:21;8.60;;;1.15;;
68449;SDS011;67758;39.572;2.652;2023-04-29T00:56:54;7.40;;;1.53;;
68449;SDS011;67758;39.572;2.652;2023-04-29T00:59:25;6.05;;;1.15;;
68449;SDS011;67758;39.572;2.652;2023-04-29T01:02:00;6.22;;;1.10;;
68449;SDS011;67758;39.572;2.652;2023-04-29T01:04:45;6.82;;;1.20;;
68449;SDS011;67758;39.572;2.652;2023-04-29T01:07:16;5.57;;;1.42;;
68449;SDS011;67758;39.572;2.652;2023-04-29T01:13:28;6.65;;;1.27;;
68449;SDS011;67758;39.572;2.652;2023-04-29T01:16:51;6.15;;;1.40;;
68449;SDS011;67758;39.572;2.652;2023-04-29T01:19:53;4.65;;;1.20;;
68449;SDS011;67758;39.572;2.652;2023-04-29T01:22:58;5.75;;;1.52;;
68449;SDS011;67758;39.572;2.652;2023-04-29T01:25:44;4.47;;;1.33;;
68449;SDS011;67758;39.572;2.652;2023-04-29T01:31:34;6.38;;;1.30;;
68449;SDS011;67758;39.572;2.652;2023-04-29T01:34:33;6.32;;;2.13;;
68449;SDS011;67758;39.572;2.652;2023-04-29T01:37:34;5.50;;;1.33;;
68449;SDS011;67758;39.572;2.652;2023-04-29T01:40:19;4.80;;;1.30;;
68449;SDS011;67758;39.572;2.652;2023-04-29T01:43:29;4.97;;;1.10;;
68449;SDS011;67758;39.572;2.652;2023-04-29T01:45:58;5.28;;;1.13;;
68449;SDS011;67758;39.572;2.652;2023-04-29T01:48:29;6.47;;;1.50;;
68449;SDS011;67758;39.572;2.652;2023-04-29T01:51:01;7.43;;;1.23;;
68449;SDS011;67758;39.572;2.652;2023-04-29T01:53:33;7.80;;;2.17;;
68449;SDS011;67758;39.572;2.652;2023-04-29T01:56:06;9.05;;;1.33;;
68449;SDS011;67758;39.572;2.652;2023-04-29T02:01:22;4.95;;;1.20;;
68449;SDS011;67758;39.572;2.652;2023-04-29T02:03:58;8.07;;;1.50;;
68449;SDS011;67758;39.572;2.652;2023-04-29T02:06:28;6.93;;;1.40;;
68449;SDS011;67758;39.572;2.652;2023-04-29T02:09:00;6.18;;;1.33;;
68449;SDS011;67758;39.572;2.652;2023-04-29T02:11:39;7.82;;;1.63;;
68449;SDS011;67758;39.572;2.652;2023-04-29T02:14:10;6.00;;;1.48;;
68449;SDS011;67758;39.572;2.652;2023-04-29T02:16:54;6.05;;;1.30;;
68449;SDS011;67758;39.572;2.652;2023-04-29T02:19:21;6.10;;;1.17;;
68449;SDS011;67758;39.572;2.652;2023-04-29T02:22:03;5.53;;;1.30;;
68449;SDS011;67758;39.572;2.652;2023-04-29T02:24:33;6.80;;;1.30;;
68449;SDS011;67758;39.572;2.652;2023-04-29T02:27:02;4.93;;;1.00;;
68449;SDS011;67758;39.572;2.652;2023-04-29T02:29:51;5.03;;;1.13;;
68449;SDS011;67758;39.572;2.652;2023-04-29T02:32:38;5.03;;;1.10;;
68449;SDS011;67758;39.572;2.652;2023-04-29T02:35:11;4.97;;;1.17;;
68449;SDS011;67758;39.572;2.652;2023-04-29T02:37:38;7.10;;;1.20;;
68449;SDS011;67758;39.572;2.652;2023-04-29T02:40:09;5.82;;;1.20;;
68449;SDS011;67758;39.572;2.652;2023-04-29T02:43:01;9.02;;;3.30;;
68449;SDS011;67758;39.572;2.652;2023-04-29T02:45:27;9.73;;;3.67;;
68449;SDS011;67758;39.572;2.652;2023-04-29T02:47:53;6.95;;;2.30;;
68449;SDS011;67758;39.572;2.652;2023-04-29T02:50:22;7.10;;;2.55;;
68449;SDS011;67758;39.572;2.652;2023-04-29T02:52:49;10.70;;;3.00;;
68449;SDS011;67758;39.572;2.652;2023-04-29T02:55:20;7.93;;;2.70;;
68449;SDS011;67758;39.572;2.652;2023-04-29T02:57:46;8.43;;;3.45;;
68449;SDS011;67758;39.572;2.652;2023-04-29T03:00:33;9.20;;;2.90;;
68449;SDS011;67758;39.572;2.652;2023-04-29T03:02:58;8.03;;;3.10;;
68449;SDS011;67758;39.572;2.652;2023-04-29T03:05:32;10.10;;;3.10;;
68449;SDS011;67758;39.572;2.652;2023-04-29T03:07:58;7.32;;;3.00;;
68449;SDS011;67758;39.572;2.652;2023-04-29T03:10:29;7.00;;;2.63;;
68449;SDS011;67758;39.572;2.652;2023-04-29T03:12:57;7.57;;;2.28;;
68449;SDS011;67758;39.572;2.652;2023-04-29T03:15:23;8.63;;;2.40;;
68449;SDS011;67758;39.572;2.652;2023-04-29T03:17:56;8.00;;;2.22;;
68449;SDS011;67758;39.572;2.652;2023-04-29T03:20:26;7.35;;;2.28;;
68449;SDS011;67758;39.572;2.652;2023-04-29T03:22:57;6.45;;;1.67;;
68449;SDS011;67758;39.572;2.652;2023-04-29T03:25:29;7.82;;;1.60;;
68449;SDS011;67758;39.572;2.652;2023-04-29T03:27:54;7.30;;;1.40;;
68449;SDS011;67758;39.572;2.652;2023-04-29T03:30:21;7.28;;;1.95;;
68449;SDS011;67758;39.572;2.652;2023-04-29T03:32:52;7.60;;;1.70;;
68449;SDS011;67758;39.572;2.652;2023-04-29T03:35:21;8.55;;;1.88;;
68449;SDS011;67758;39.572;2.652;2023-04-29T03:37:48;4.15;;;1.00;;
68449;SDS011;67758;39.572;2.652;2023-04-29T03:40:15;7.43;;;1.43;;
68449;SDS011;67758;39.572;2.652;2023-04-29T03:42:45;7.97;;;1.70;;
68449;SDS011;67758;39.572;2.652;2023-04-29T03:45:10;7.20;;;1.63;;
68449;SDS011;67758;39.572;2.652;2023-04-29T03:47:38;6.03;;;2.00;;
68449;SDS011;67758;39.572;2.652;2023-04-29T03:50:07;6.63;;;2.03;;
68449;SDS011;67758;39.572;2.652;2023-04-29T03:52:33;7.33;;;1.77;;
68449;SDS011;67758;39.572;2.652;2023-04-29T03:55:10;8.65;;;1.90;;
68449;SDS011;67758;39.572;2.652;2023-04-29T03:57:39;7.93;;;1.70;;
68449;SDS011;67758;39.572;2.652;2023-04-29T04:00:07;8.30;;;1.80;;
68449;SDS011;67758;39.572;2.652;2023-04-29T04:02:38;6.63;;;1.55;;
68449;SDS011;67758;39.572;2.652;2023-04-29T04:05:18;7.15;;;2.20;;
68449;SDS011;67758;39.572;2.652;2023-04-29T04:07:45;7.30;;;1.60;;
68449;SDS011;67758;39.572;2.652;2023-04-29T04:10:15;5.97;;;1.80;;
68449;SDS011;67758;39.572;2.652;2023-04-29T04:12:57;5.67;;;1.50;;
68449;SDS011;67758;39.572;2.652;2023-04-29T04:15:27;11.20;;;2.28;;
68449;SDS011;67758;39.572;2.652;2023-04-29T04:17:58;7.00;;;1.70;;
68449;SDS011;67758;39.572;2.652;2023-04-29T04:20:39;6.47;;;1.67;;
68449;SDS011;67758;39.572;2.652;2023-04-29T04:23:12;7.00;;;1.70;;
68449;SDS011;67758;39.572;2.652;2023-04-29T04:25:46;7.70;;;1.90;;
68449;SDS011;67758;39.572;2.652;2023-04-29T04:28:28;8.13;;;1.70;;
68449;SDS011;67758;39.572;2.652;2023-04-29T04:31:27;7.82;;;1.65;;
68449;SDS011;67758;39.572;2.652;2023-04-29T04:34:18;5.95;;;1.30;;
68449;SDS011;67758;39.572;2.652;2023-04-29T04:36:44;8.32;;;2.30;;
68449;SDS011;67758;39.572;2.652;2023-04-29T04:39:17;7.27;;;2.10;;
68449;SDS011;67758;39.572;2.652;2023-04-29T04:42:04;7.35;;;1.70;;
68449;SDS011;67758;39.572;2.652;2023-04-29T04:44:32;10.68;;;1.92;;
68449;SDS011;67758;39.572;2.652;2023-04-29T04:47:00;8.10;;;1.63;;
68449;SDS011;67758;39.572;2.652;2023-04-29T04:49:27;5.80;;;1.63;;
68449;SDS011;67758;39.572;2.652;2023-04-29T04:51:53;8.20;;;1.83;;
68449;SDS011;67758;39.572;2.652;2023-04-29T04:54:18;10.10;;;1.90;;
68449;SDS011;67758;39.572;2.652;2023-04-29T04:56:45;10.50;;;2.00;;
68449;SDS011;67758;39.572;2.652;2023-04-29T04:59:36;7.77;;;2.20;;
68449;SDS011;67758;39.572;2.652;2023-04-29T05:02:20;6.43;;;1.40;;
68449;SDS011;67758;39.572;2.652;2023-04-29T05:04:46;8.35;;;1.75;;
68449;SDS011;67758;39.572;2.652;2023-04-29T05:08:28;7.00;;;2.03;;
68449;SDS011;67758;39.572;2.652;2023-04-29T05:11:31;9.93;;;1.88;;
68449;SDS011;67758;39.572;2.652;2023-04-29T05:14:02;7.50;;;2.20;;
68449;SDS011;67758;39.572;2.652;2023-04-29T05:16:29;12.40;;;2.75;;
68449;SDS011;67758;39.572;2.652;2023-04-29T05:19:15;10.68;;;1.80;;
68449;SDS011;67758;39.572;2.652;2023-04-29T05:21:59;8.23;;;1.42;;
68449;SDS011;67758;39.572;2.652;2023-04-29T05:24:34;9.40;;;1.77;;
68449;SDS011;67758;39.572;2.652;2023-04-29T05:27:13;9.57;;;1.40;;
68449;SDS011;67758;39.572;2.652;2023-04-29T05:30:25;5.78;;;1.40;;
68449;SDS011;67758;39.572;2.652;2023-04-29T05:33:06;9.75;;;2.25;;
68449;SDS011;67758;39.572;2.652;2023-04-29T05:35:54;8.52;;;1.67;;
68449;SDS011;67758;39.572;2.652;2023-04-29T05:38:57;5.03;;;1.40;;
68449;SDS011;67758;39.572;2.652;2023-04-29T05:41:25;6.57;;;1.53;;
68449;SDS011;67758;39.572;2.652;2023-04-29T05:43:59;8.25;;;1.48;;
68449;SDS011;67758;39.572;2.652;2023-04-29T05:46:29;8.07;;;1.50;;
68449;SDS011;67758;39.572;2.652;2023-04-29T05:49:25;6.13;;;1.58;;
68449;SDS011;67758;39.572;2.652;2023-04-29T05:52:06;7.55;;;1.60;;
68449;SDS011;67758;39.572;2.652;2023-04-29T05:54:54;7.10;;;1.40;;
68449;SDS011;67758;39.572;2.652;2023-04-29T05:57:20;7.13;;;1.88;;
68449;SDS011;67758;39.572;2.652;2023-04-29T05:59:46;7.03;;;1.50;;
68449;SDS011;67758;39.572;2.652;2023-04-29T06:02:12;6.13;;;1.80;;
68449;SDS011;67758;39.572;2.652;2023-04-29T06:04:41;8.33;;;2.07;;
68449;SDS011;67758;39.572;2.652;2023-04-29T06:07:07;24.88;;;2.90;;
68449;SDS011;67758;39.572;2.652;2023-04-29T06:09:36;10.45;;;2.00;;
68449;SDS011;67758;39.572;2.652;2023-04-29T06:12:03;13.63;;;2.37;;
68449;SDS011;67758;39.572;2.652;2023-04-29T06:14:33;13.15;;;1.73;;
68449;SDS011;67758;39.572;2.652;2023-04-29T06:17:21;9.30;;;1.42;;
68449;SDS011;67758;39.572;2.652;2023-04-29T06:19:47;16.10;;;3.28;;
68449;SDS011;67758;39.572;2.652;2023-04-29T06:22:16;16.67;;;1.77;;
68449;SDS011;67758;39.572;2.652;2023-04-29T06:24:42;8.23;;;1.58;;
68449;SDS011;67758;39.572;2.652;2023-04-29T06:27:11;8.82;;;1.88;;
68449;SDS011;67758;39.572;2.652;2023-04-29T06:29:40;7.63;;;1.73;;
68449;SDS011;67758;39.572;2.652;2023-04-29T06:32:07;11.20;;;1.48;;
68449;SDS011;67758;39.572;2.652;2023-04-29T06:34:33;9.05;;;2.00;;
68449;SDS011;67758;39.572;2.652;2023-04-29T06:37:03;9.70;;;2.15;;
68449;SDS011;67758;39.572;2.652;2023-04-29T06:39:29;9.90;;;1.93;;
68449;SDS011;67758;39.572;2.652;2023-04-29T06:41:56;14.73;;;2.15;;
68449;SDS011;67758;39.572;2.652;2023-04-29T06:44:24;12.63;;;2.30;;
68449;SDS011;67758;39.572;2.652;2023-04-29T06:46:50;8.53;;;1.80;;
68449;SDS011;67758;39.572;2.652;2023-04-29T06:49:21;11.48;;;2.53;;
68449;SDS011;67758;39.572;2.652;2023-04-29T06:52:08;12.07;;;2.60;;
68449;SDS011;67758;39.572;2.652;2023-04-29T06:54:38;8.32;;;2.60;;
68449;SDS011;67758;39.572;2.652;2023-04-29T06:57:07;9.13;;;2.63;;
68449;SDS011;67758;39.572;2.652;2023-04-29T06:59:33;13.47;;;2.87;;
68449;SDS011;67758;39.572;2.652;2023-04-29T07:02:02;11.00;;;2.72;;
68449;SDS011;67758;39.572;2.652;2023-04-29T07:04:35;14.80;;;2.88;;
68449;SDS011;67758;39.572;2.652;2023-04-29T07:07:06;15.00;;;2.90;;
68449;SDS011;67758;39.572;2.652;2023-04-29T07:09:32;11.87;;;2.97;;
68449;SDS011;67758;39.572;2.652;2023-04-29T07:11:58;12.10;;;2.80;;
68449;SDS011;67758;39.572;2.652;2023-04-29T07:14:33;15.27;;;3.90;;
68449;SDS011;67758;39.572;2.652;2023-04-29T07:17:28;12.60;;;3.28;;
68449;SDS011;67758;39.572;2.652;2023-04-29T07:23:00;12.65;;;3.75;;
68449;SDS011;67758;39.572;2.652;2023-04-29T07:25:30;11.45;;;3.90;;
68449;SDS011;67758;39.572;2.652;2023-04-29T07:28:21;11.38;;;3.58;;
68449;SDS011;67758;39.572;2.652;2023-04-29T07:31:16;17.65;;;3.97;;
68449;SDS011;67758;39.572;2.652;2023-04-29T07:34:25;17.60;;;3.90;;
68449;SDS011;67758;39.572;2.652;2023-04-29T07:37:36;16.97;;;5.10;;
68449;SDS011;67758;39.572;2.652;2023-04-29T07:40:40;14.50;;;4.95;;
68449;SDS011;67758;39.572;2.652;2023-04-29T07:43:18;14.63;;;5.18;;
68449;SDS011;67758;39.572;2.652;2023-04-29T07:45:53;13.88;;;5.40;;
68449;SDS011;67758;39.572;2.652;2023-04-29T07:48:18;16.27;;;5.23;;
68449;SDS011;67758;39.572;2.652;2023-04-29T07:50:45;15.82;;;5.35;;
68449;SDS011;67758;39.572;2.652;2023-04-29T07:53:21;17.87;;;5.03;;
68449;SDS011;67758;39.572;2.652;2023-04-29T07:55:47;16.45;;;4.20;;
68449;SDS011;67758;39.572;2.652;2023-04-29T07:58:25;20.40;;;5.78;;
68449;SDS011;67758;39.572;2.652;2023-04-29T08:01:05;20.35;;;5.70;;
68449;SDS011;67758;39.572;2.652;2023-04-29T08:03:38;14.60;;;5.90;;
68449;SDS011;67758;39.572;2.652;2023-04-29T08:06:05;20.50;;;5.70;;
68449;SDS011;67758;39.572;2.652;2023-04-29T08:08:36;15.80;;;5.72;;
68449;SDS011;67758;39.572;2.652;2023-04-29T08:11:02;16.05;;;4.85;;
68449;SDS011;67758;39.572;2.652;2023-04-29T08:13:31;16.92;;;5.38;;
68449;SDS011;67758;39.572;2.652;2023-04-29T08:15:57;16.47;;;5.10;;
68449;SDS011;67758;39.572;2.652;2023-04-29T08:18:22;12.95;;;5.03;;
68449;SDS011;67758;39.572;2.652;2023-04-29T08:20:48;16.37;;;5.30;;
68449;SDS011;67758;39.572;2.652;2023-04-29T08:23:14;15.57;;;5.30;;
68449;SDS011;67758;39.572;2.652;2023-04-29T08:25:40;18.17;;;5.10;;
68449;SDS011;67758;39.572;2.652;2023-04-29T08:28:13;17.02;;;4.30;;
68449;SDS011;67758;39.572;2.652;2023-04-29T08:30:39;14.83;;;4.90;;
68449;SDS011;67758;39.572;2.652;2023-04-29T08:33:08;17.25;;;4.78;;
68449;SDS011;67758;39.572;2.652;2023-04-29T08:35:42;18.52;;;5.35;;
68449;SDS011;67758;39.572;2.652;2023-04-29T08:38:08;17.85;;;5.13;;
68449;SDS011;67758;39.572;2.652;2023-04-29T08:40:44;22.80;;;6.43;;
68449;SDS011;67758;39.572;2.652;2023-04-29T08:43:13;19.17;;;5.38;;
68449;SDS011;67758;39.572;2.652;2023-04-29T08:45:42;13.38;;;4.78;;
68449;SDS011;67758;39.572;2.652;2023-04-29T08:48:08;15.52;;;5.25;;
68449;SDS011;67758;39.572;2.652;2023-04-29T08:50:38;18.20;;;5.93;;
68449;SDS011;67758;39.572;2.652;2023-04-29T08:53:05;11.85;;;4.68;;
68449;SDS011;67758;39.572;2.652;2023-04-29T08:55:36;14.25;;;5.63;;
68449;SDS011;67758;39.572;2.652;2023-04-29T08:58:12;14.38;;;5.18;;
68449;SDS011;67758;39.572;2.652;2023-04-29T09:00:41;18.38;;;6.05;;
68449;SDS011;67758;39.572;2.652;2023-04-29T09:05:55;12.23;;;5.05;;
68449;SDS011;67758;39.572;2.652;2023-04-29T09:08:23;15.48;;;5.03;;
68449;SDS011;67758;39.572;2.652;2023-04-29T09:10:53;13.55;;;5.10;;
68449;SDS011;67758;39.572;2.652;2023-04-29T09:13:26;20.67;;;5.00;;
68449;SDS011;67758;39.572;2.652;2023-04-29T09:15:53;17.20;;;5.32;;
68449;SDS011;67758;39.572;2.652;2023-04-29T09:23:53;14.80;;;4.93;;
68449;SDS011;67758;39.572;2.652;2023-04-29T09:26:20;20.05;;;5.28;;
68449;SDS011;67758;39.572;2.652;2023-04-29T09:28:47;17.05;;;5.47;;
68449;SDS011;67758;39.572;2.652;2023-04-29T09:31:45;18.92;;;5.63;;
68449;SDS011;67758;39.572;2.652;2023-04-29T09:34:11;14.25;;;5.20;;
68449;SDS011;67758;39.572;2.652;2023-04-29T09:36:44;16.38;;;5.38;;
68449;SDS011;67758;39.572;2.652;2023-04-29T09:39:12;14.07;;;5.13;;
68449;SDS011;67758;39.572;2.652;2023-04-29T09:44:17;15.65;;;5.45;;
68449;SDS011;67758;39.572;2.652;2023-04-29T09:46:48;15.15;;;4.97;;
68449;SDS011;67758;39.572;2.652;2023-04-29T09:49:23;15.10;;;4.70;;
68449;SDS011;67758;39.572;2.652;2023-04-29T09:54:20;14.80;;;4.97;;
68449;SDS011;67758;39.572;2.652;2023-04-29T09:56:50;11.82;;;4.63;;
68449;SDS011;67758;39.572;2.652;2023-04-29T09:59:17;17.05;;;4.93;;
68449;SDS011;67758;39.572;2.652;2023-04-29T10:01:45;11.98;;;5.53;;
68449;SDS011;67758;39.572;2.652;2023-04-29T10:04:16;17.67;;;5.22;;
68449;SDS011;67758;39.572;2.652;2023-04-29T10:06:43;13.73;;;4.82;;
68449;SDS011;67758;39.572;2.652;2023-04-29T10:09:14;13.90;;;4.40;;
68449;SDS011;67758;39.572;2.652;2023-04-29T10:11:41;14.40;;;4.28;;
68449;SDS011;67758;39.572;2.652;2023-04-29T10:14:12;10.30;;;3.88;;
68449;SDS011;67758;39.572;2.652;2023-04-29T10:19:33;12.52;;;4.82;;
68449;SDS011;67758;39.572;2.652;2023-04-29T10:22:08;14.10;;;4.63;;
68449;SDS011;67758;39.572;2.652;2023-04-29T10:24:40;13.23;;;4.50;;
68449;SDS011;67758;39.572;2.652;2023-04-29T10:27:11;11.52;;;4.25;;
68449;SDS011;67758;39.572;2.652;2023-04-29T10:29:39;16.73;;;4.65;;
68449;SDS011;67758;39.572;2.652;2023-04-29T10:32:08;12.15;;;4.38;;
68449;SDS011;67758;39.572;2.652;2023-04-29T10:34:38;13.60;;;4.78;;
68449;SDS011;67758;39.572;2.652;2023-04-29T10:37:09;13.13;;;4.47;;
68449;SDS011;67758;39.572;2.652;2023-04-29T10:39:43;11.98;;;4.30;;
68449;SDS011;67758;39.572;2.652;2023-04-29T10:42:19;14.82;;;4.85;;
68449;SDS011;67758;39.572;2.652;2023-04-29T10:50:39;12.60;;;4.63;;
68449;SDS011;67758;39.572;2.652;2023-04-29T10:53:11;12.13;;;6.07;;
68449;SDS011;67758;39.572;2.652;2023-04-29T10:55:38;12.43;;;5.70;;
68449;SDS011;67758;39.572;2.652;2023-04-29T10:58:05;14.93;;;6.30;;
68449;SDS011;67758;39.572;2.652;2023-04-29T11:00:57;12.43;;;5.60;;
68449;SDS011;67758;39.572;2.652;2023-04-29T11:06:11;11.05;;;5.57;;
68449;SDS011;67758;39.572;2.652;2023-04-29T11:08:37;9.90;;;4.22;;
68449;SDS011;67758;39.572;2.652;2023-04-29T11:11:04;8.77;;;4.88;;
68449;SDS011;67758;39.572;2.652;2023-04-29T11:13:31;18.30;;;4.55;;
68449;SDS011;67758;39.572;2.652;2023-04-29T11:16:05;12.35;;;5.38;;
68449;SDS011;67758;39.572;2.652;2023-04-29T11:18:33;14.67;;;4.73;;
68449;SDS011;67758;39.572;2.652;2023-04-29T11:23:38;13.98;;;5.65;;
68449;SDS011;67758;39.572;2.652;2023-04-29T11:26:06;11.80;;;5.13;;
68449;SDS011;67758;39.572;2.652;2023-04-29T11:28:32;8.97;;;4.47;;
68449;SDS011;67758;39.572;2.652;2023-04-29T11:30:59;10.07;;;4.82;;
68449;SDS011;67758;39.572;2.652;2023-04-29T11:33:25;11.82;;;4.43;;
68449;SDS011;67758;39.572;2.652;2023-04-29T11:35:55;12.20;;;4.05;;
68449;SDS011;67758;39.572;2.652;2023-04-29T11:38:24;10.63;;;4.80;;
68449;SDS011;67758;39.572;2.652;2023-04-29T11:40:50;11.07;;;4.28;;
68449;SDS011;67758;39.572;2.652;2023-04-29T11:43:17;13.82;;;4.65;;
68449;SDS011;67758;39.572;2.652;2023-04-29T11:45:47;10.30;;;3.67;;
68449;SDS011;67758;39.572;2.652;2023-04-29T11:48:17;14.18;;;3.70;;
68449;SDS011;67758;39.572;2.652;2023-04-29T11:50:50;16.25;;;6.15;;
68449;SDS011;67758;39.572;2.652;2023-04-29T11:53:23;8.32;;;3.13;;
68449;SDS011;67758;39.572;2.652;2023-04-29T11:55:49;9.38;;;3.35;;
68449;SDS011;67758;39.572;2.652;2023-04-29T11:58:19;10.48;;;3.55;;
68449;SDS011;67758;39.572;2.652;2023-04-29T12:00:46;9.23;;;2.53;;
68449;SDS011;67758;39.572;2.652;2023-04-29T12:03:15;12.35;;;3.20;;
68449;SDS011;67758;39.572;2.652;2023-04-29T12:05:52;10.82;;;3.47;;
68449;SDS011;67758;39.572;2.652;2023-04-29T12:08:19;10.95;;;2.95;;
68449;SDS011;67758;39.572;2.652;2023-04-29T12:10:51;8.55;;;2.58;;
68449;SDS011;67758;39.572;2.652;2023-04-29T12:13:19;14.48;;;3.45;;
68449;SDS011;67758;39.572;2.652;2023-04-29T12:15:47;12.48;;;2.88;;
68449;SDS011;67758;39.572;2.652;2023-04-29T12:18:21;12.80;;;3.45;;
68449;SDS011;67758;39.572;2.652;2023-04-29T12:20:48;12.30;;;3.55;;
68449;SDS011;67758;39.572;2.652;2023-04-29T12:23:19;12.23;;;2.97;;
68449;SDS011;67758;39.572;2.652;2023-04-29T12:25:57;13.93;;;3.47;;
68449;SDS011;67758;39.572;2.652;2023-04-29T12:28:24;13.80;;;3.40;;
68449;SDS011;67758;39.572;2.652;2023-04-29T12:30:52;16.42;;;2.58;;
68449;SDS011;67758;39.572;2.652;2023-04-29T12:33:19;11.77;;;2.63;;
68449;SDS011;67758;39.572;2.652;2023-04-29T12:35:53;18.65;;;7.43;;
68449;SDS011;67758;39.572;2.652;2023-04-29T12:38:27;14.63;;;4.70;;
68449;SDS011;67758;39.572;2.652;2023-04-29T12:40:58;22.23;;;6.00;;
68449;SDS011;67758;39.572;2.652;2023-04-29T12:43:30;14.20;;;4.35;;
68449;SDS011;67758;39.572;2.652;2023-04-29T12:46:01;11.43;;;3.40;;
68449;SDS011;67758;39.572;2.652;2023-04-29T12:48:28;16.52;;;3.58;;
68449;SDS011;67758;39.572;2.652;2023-04-29T12:50:56;8.60;;;3.13;;
68449;SDS011;67758;39.572;2.652;2023-04-29T12:53:24;10.80;;;2.90;;
68449;SDS011;67758;39.572;2.652;2023-04-29T12:55:55;12.57;;;3.50;;
68449;SDS011;67758;39.572;2.652;2023-04-29T12:58:22;10.57;;;2.60;;
68449;SDS011;67758;39.572;2.652;2023-04-29T13:00:48;10.77;;;2.75;;
68449;SDS011;67758;39.572;2.652;2023-04-29T13:03:14;19.70;;;5.30;;
68449;SDS011;67758;39.572;2.652;2023-04-29T13:05:39;13.10;;;3.65;;
68449;SDS011;67758;39.572;2.652;2023-04-29T13:08:05;13.23;;;3.70;;
68449;SDS011;67758;39.572;2.652;2023-04-29T13:10:43;9.73;;;3.15;;
68449;SDS011;67758;39.572;2.652;2023-04-29T13:13:10;9.95;;;3.30;;
68449;SDS011;67758;39.572;2.652;2023-04-29T13:15:36;12.52;;;2.80;;
68449;SDS011;67758;39.572;2.652;2023-04-29T13:18:05;14.50;;;4.03;;
68449;SDS011;67758;39.572;2.652;2023-04-29T13:20:31;10.43;;;2.78;;
68449;SDS011;67758;39.572;2.652;2023-04-29T13:22:57;9.73;;;3.00;;
68449;SDS011;67758;39.572;2.652;2023-04-29T13:25:22;12.23;;;2.93;;
68449;SDS011;67758;39.572;2.652;2023-04-29T13:27:48;12.73;;;3.05;;
68449;SDS011;67758;39.572;2.652;2023-04-29T13:30:14;10.00;;;3.20;;
68449;SDS011;67758;39.572;2.652;2023-04-29T13:32:40;11.00;;;3.10;;
68449;SDS011;67758;39.572;2.652;2023-04-29T13:35:06;11.00;;;3.77;;
68449;SDS011;67758;39.572;2.652;2023-04-29T13:37:32;11.07;;;3.20;;
68449;SDS011;67758;39.572;2.652;2023-04-29T13:39:58;9.82;;;2.92;;
68449;SDS011;67758;39.572;2.652;2023-04-29T13:42:24;10.00;;;2.72;;
68449;SDS011;67758;39.572;2.652;2023-04-29T13:44:49;9.30;;;2.57;;
68449;SDS011;67758;39.572;2.652;2023-04-29T13:47:15;14.48;;;3.42;;
68449;SDS011;67758;39.572;2.652;2023-04-29T13:49:42;10.77;;;2.65;;
68449;SDS011;67758;39.572;2.652;2023-04-29T13:52:10;10.35;;;2.65;;
68449;SDS011;67758;39.572;2.652;2023-04-29T13:54:37;11.70;;;3.00;;
68449;SDS011;67758;39.572;2.652;2023-04-29T13:57:03;9.07;;;2.42;;
68449;SDS011;67758;39.572;2.652;2023-04-29T13:59:33;25.10;;;9.32;;
68449;SDS011;67758;39.572;2.652;2023-04-29T14:02:00;13.27;;;4.60;;
68449;SDS011;67758;39.572;2.652;2023-04-29T14:04:26;11.18;;;2.95;;
68449;SDS011;67758;39.572;2.652;2023-04-29T14:06:53;12.65;;;3.10;;
68449;SDS011;67758;39.572;2.652;2023-04-29T14:09:20;9.45;;;2.65;;
68449;SDS011;67758;39.572;2.652;2023-04-29T14:11:46;8.95;;;2.90;;
68449;SDS011;67758;39.572;2.652;2023-04-29T14:14:12;13.38;;;2.88;;
68449;SDS011;67758;39.572;2.652;2023-04-29T14:16:38;14.87;;;3.37;;
68449;SDS011;67758;39.572;2.652;2023-04-29T14:19:04;11.23;;;3.05;;
68449;SDS011;67758;39.572;2.652;2023-04-29T14:21:30;10.95;;;3.00;;
68449;SDS011;67758;39.572;2.652;2023-04-29T14:23:57;8.85;;;2.78;;
68449;SDS011;67758;39.572;2.652;2023-04-29T14:26:24;10.32;;;3.22;;
68449;SDS011;67758;39.572;2.652;2023-04-29T14:28:51;13.90;;;3.55;;
68449;SDS011;67758;39.572;2.652;2023-04-29T14:31:26;9.98;;;3.65;;
68449;SDS011;67758;39.572;2.652;2023-04-29T14:33:56;7.47;;;3.35;;
68449;SDS011;67758;39.572;2.652;2023-04-29T14:36:22;7.70;;;3.33;;
68449;SDS011;67758;39.572;2.652;2023-04-29T14:38:48;12.02;;;3.33;;
68449;SDS011;67758;39.572;2.652;2023-04-29T14:41:14;9.50;;;3.73;;
68449;SDS011;67758;39.572;2.652;2023-04-29T14:43:40;10.63;;;3.28;;
68449;SDS011;67758;39.572;2.652;2023-04-29T14:46:06;10.55;;;3.92;;
68449;SDS011;67758;39.572;2.652;2023-04-29T14:48:32;10.68;;;4.15;;
68449;SDS011;67758;39.572;2.652;2023-04-29T14:50:58;8.77;;;4.03;;
68449;SDS011;67758;39.572;2.652;2023-04-29T14:53:24;9.10;;;3.78;;
68449;SDS011;67758;39.572;2.652;2023-04-29T14:55:50;12.23;;;3.60;;
68449;SDS011;67758;39.572;2.652;2023-04-29T14:58:15;10.18;;;3.45;;
68449;SDS011;67758;39.572;2.652;2023-04-29T15:00:42;12.68;;;4.07;;
68449;SDS011;67758;39.572;2.652;2023-04-29T15:03:08;11.23;;;3.80;;
68449;SDS011;67758;39.572;2.652;2023-04-29T15:05:34;13.55;;;4.55;;
68449;SDS011;67758;39.572;2.652;2023-04-29T15:08:00;12.85;;;4.00;;
68449;SDS011;67758;39.572;2.652;2023-04-29T15:10:29;11.75;;;3.25;;
68449;SDS011;67758;39.572;2.652;2023-04-29T15:12:55;8.60;;;3.75;;
68449;SDS011;67758;39.572;2.652;2023-04-29T15:15:21;8.63;;;3.53;;
68449;SDS011;67758;39.572;2.652;2023-04-29T15:17:47;10.07;;;3.15;;
68449;SDS011;67758;39.572;2.652;2023-04-29T15:20:13;8.55;;;3.40;;
68449;SDS011;67758;39.572;2.652;2023-04-29T15:22:39;12.23;;;3.60;;
68449;SDS011;67758;39.572;2.652;2023-04-29T15:25:08;8.97;;;3.53;;
68449;SDS011;67758;39.572;2.652;2023-04-29T15:27:34;10.43;;;3.42;;
68449;SDS011;67758;39.572;2.652;2023-04-29T15:30:00;9.80;;;3.90;;
68449;SDS011;67758;39.572;2.652;2023-04-29T15:32:27;14.07;;;3.97;;
68449;SDS011;67758;39.572;2.652;2023-04-29T15:34:59;8.65;;;3.65;;
68449;SDS011;67758;39.572;2.652;2023-04-29T15:37:26;9.23;;;3.73;;
68449;SDS011;67758;39.572;2.652;2023-04-29T15:39:57;13.27;;;3.40;;
68449;SDS011;67758;39.572;2.652;2023-04-29T15:42:23;11.02;;;3.95;;
68449;SDS011;67758;39.572;2.652;2023-04-29T15:44:49;9.57;;;4.53;;
68449;SDS011;67758;39.572;2.652;2023-04-29T15:47:15;10.45;;;3.90;;
68449;SDS011;67758;39.572;2.652;2023-04-29T15:49:41;9.13;;;3.60;;